Urb Islazul, Puerto Rico
Current Conditions -  °F | °C
As of 3:50 PM on Thursday 29 Jan 2015 (Local Time) from TJBQ Reporting Station
Scattered Clouds Scattered Clouds  
Wind Chill: 79°   Ceiling: Unl
Heat Index: 81°   Visibility: 10mi
Dew Point: 68°   Wind: 13mph
Humidity: 69%   Direction: 70°ENE
Pressure: 29.98"   Gusts: NA
Location:  18.4951°N, 67.0273°W
Report Text: TJBQ 291950Z 07011KT 10SM SCT080 26/20 A2998 RMK RWY 08 ATIS L
Loading
Personal Weather Stations






























Interactive Weather Map New forecast layout! Learn more

10-Day Weather Forecast

Advertisements
Track Severe Weather on mobile